createdAt,value
2023-05-08T00:02:19.705Z,10.93
2023-05-08T00:06:21.519Z,13.82
2023-05-08T00:10:23.259Z,16.75
2023-05-08T00:14:25.004Z,12.57
2023-05-08T00:18:26.719Z,11.68
2023-05-08T00:22:28.391Z,14.70
2023-05-08T00:26:30.099Z,11.65
2023-05-08T00:30:31.843Z,11.63
2023-05-08T00:34:33.758Z,10.68
2023-05-08T00:38:36.679Z,14.65
2023-05-08T00:42:38.591Z,19.10
2023-05-08T00:46:42.388Z,15.63
2023-05-08T00:50:44.340Z,12.48
2023-05-08T00:54:46.729Z,10.95
2023-05-08T00:58:48.667Z,12.63
2023-05-08T01:02:50.810Z,12.10
2023-05-08T01:06:52.642Z,12.75
2023-05-08T01:11:06.285Z,11.98
2023-05-08T01:15:29.440Z,13.50
2023-05-08T01:19:52.515Z,15.40
2023-05-08T01:24:24.381Z,11.88
2023-05-08T01:28:35.208Z,13.85
2023-05-08T01:32:41.223Z,11.02
2023-05-08T01:36:54.982Z,11.52
2023-05-08T01:41:24.997Z,11.05
2023-05-08T01:45:31.355Z,10.02
2023-05-08T01:49:43.498Z,10.47
2023-05-08T01:53:50.040Z,12.23
2023-05-08T01:57:56.037Z,17.97
2023-05-08T02:02:00.622Z,12.40
2023-05-08T02:06:04.133Z,13.70
2023-05-08T02:10:07.713Z,10.48
2023-05-08T02:14:11.540Z,11.88
2023-05-08T02:18:15.593Z,10.88
2023-05-08T02:22:19.560Z,10.85
2023-05-08T02:26:23.103Z,10.65
2023-05-08T02:30:26.338Z,12.45
2023-05-08T02:34:30.328Z,13.80
2023-05-08T02:38:32.619Z,12.13
2023-05-08T02:42:34.509Z,11.73
2023-05-08T02:47:00.693Z,11.20
2023-05-08T02:51:19.513Z,14.60
2023-05-08T02:55:24.893Z,10.63
2023-05-08T02:59:36.927Z,14.25
2023-05-08T03:03:45.332Z,15.30
2023-05-08T03:07:50.962Z,9.40
2023-05-08T03:12:02.183Z,11.02
2023-05-08T03:16:06.559Z,13.93
2023-05-08T03:20:12.353Z,11.75
2023-05-08T03:24:17.417Z,8.50
2023-05-08T03:28:19.916Z,9.63
2023-05-08T03:32:24.151Z,9.27
2023-05-08T03:36:27.005Z,10.82
2023-05-08T03:40:29.025Z,11.75
2023-05-08T03:44:31.790Z,8.80
2023-05-08T03:48:35.085Z,9.25
2023-05-08T03:52:37.921Z,13.95
2023-05-08T03:56:39.646Z,9.32
2023-05-08T04:01:16.738Z,12.73
2023-05-08T04:05:34.398Z,14.80
2023-05-08T04:13:48.714Z,15.95
2023-05-08T04:17:55.803Z,10.15
2023-05-08T04:22:06.410Z,9.52
2023-05-08T04:26:10.574Z,10.27
2023-05-08T04:30:13.407Z,19.92
2023-05-08T04:34:15.894Z,11.23
2023-05-08T04:38:17.618Z,11.27
2023-05-08T04:42:27.438Z,13.48
2023-05-08T04:46:29.211Z,14.98
2023-05-08T04:50:30.960Z,17.25
2023-05-08T04:54:32.621Z,15.27
2023-05-08T04:58:34.344Z,16.20
2023-05-08T05:02:36.163Z,15.13
2023-05-08T05:06:37.889Z,15.82
2023-05-08T05:10:39.906Z,19.42
2023-05-08T05:14:41.564Z,16.45
2023-05-08T05:18:43.178Z,15.10
2023-05-08T05:22:44.899Z,14.95
2023-05-08T05:26:46.543Z,15.15
2023-05-08T05:30:48.426Z,13.82
2023-05-08T05:34:50.856Z,15.38
2023-05-08T05:38:52.517Z,14.40
2023-05-08T05:42:54.186Z,14.20
2023-05-08T05:46:55.990Z,13.45
2023-05-08T05:50:57.834Z,14.35
2023-05-08T05:54:59.462Z,14.73
2023-05-08T05:59:01.205Z,13.05
2023-05-08T06:03:03.155Z,14.93
2023-05-08T06:07:05.153Z,17.58
2023-05-08T06:11:06.820Z,12.75
2023-05-08T06:15:09.742Z,12.80
2023-05-08T06:19:11.892Z,15.40
2023-05-08T06:23:13.505Z,12.88
2023-05-08T06:27:15.245Z,12.35
2023-05-08T06:31:17.028Z,14.57
2023-05-08T06:35:19.450Z,14.77
2023-05-08T06:39:21.121Z,12.25
2023-05-08T06:43:22.903Z,12.23
2023-05-08T06:47:24.718Z,10.43
2023-05-08T06:51:27.039Z,9.55
2023-05-08T06:55:28.803Z,8.80
2023-05-08T06:59:30.403Z,8.38
2023-05-08T07:03:32.471Z,7.90
2023-05-08T07:07:34.128Z,8.38
2023-05-08T07:11:35.978Z,8.10
2023-05-08T07:15:38.989Z,8.30
2023-05-08T07:19:41.520Z,9.07
2023-05-08T07:23:43.333Z,8.32
2023-05-08T07:27:45.017Z,8.38
2023-05-08T07:31:48.441Z,9.38
2023-05-08T07:35:50.360Z,8.25
2023-05-08T07:39:51.974Z,6.60
2023-05-08T07:43:53.718Z,7.37
2023-05-08T07:47:57.577Z,11.65
2023-05-08T07:51:59.305Z,8.85
2023-05-08T07:56:00.973Z,8.60
2023-05-08T08:00:03.012Z,8.20
2023-05-08T08:04:05.040Z,10.00
2023-05-08T08:08:06.746Z,7.95
2023-05-08T08:12:08.472Z,7.43
2023-05-08T08:16:10.114Z,7.53
2023-05-08T08:20:12.114Z,5.80
2023-05-08T08:24:13.887Z,9.35
2023-05-08T08:28:15.551Z,6.50
2023-05-08T08:32:17.218Z,5.60
2023-05-08T08:36:18.892Z,5.18
2023-05-08T08:40:20.554Z,4.68
2023-05-08T08:44:22.267Z,4.50
2023-05-08T08:48:29.638Z,5.03
2023-05-08T08:52:39.890Z,4.37
2023-05-08T08:56:44.539Z,11.25
2023-05-08T09:00:47.680Z,4.35
2023-05-08T09:04:52.510Z,4.82
2023-05-08T09:09:00.298Z,6.53
2023-05-08T09:13:03.506Z,5.60
2023-05-08T09:17:05.513Z,7.25
2023-05-08T09:21:07.360Z,7.37
2023-05-08T09:25:09.556Z,5.05
2023-05-08T09:29:12.456Z,6.00
2023-05-08T09:33:14.201Z,6.90
2023-05-08T09:37:15.927Z,5.25
2023-05-08T09:41:17.645Z,4.18
2023-05-08T09:45:31.179Z,5.72
2023-05-08T09:49:33.001Z,6.80
2023-05-08T09:53:34.626Z,6.40
2023-05-08T09:57:39.086Z,5.20
2023-05-08T10:01:40.757Z,4.90
2023-05-08T10:05:42.751Z,7.95
2023-05-08T10:09:59.429Z,4.87
2023-05-08T10:14:01.205Z,5.30
2023-05-08T10:18:08.655Z,6.00
2023-05-08T10:22:13.390Z,6.35
2023-05-08T10:26:31.396Z,6.20
2023-05-08T10:30:35.993Z,6.53
2023-05-08T10:34:52.131Z,7.60
2023-05-08T10:38:54.526Z,6.45
2023-05-08T10:42:57.363Z,5.62
2023-05-08T10:47:08.723Z,6.85
2023-05-08T10:51:33.253Z,5.10
2023-05-08T10:55:40.116Z,5.25
2023-05-08T10:59:48.079Z,7.37
2023-05-08T11:03:52.871Z,5.43
2023-05-08T11:07:54.577Z,4.70
2023-05-08T11:12:08.530Z,4.03
2023-05-08T11:16:11.627Z,4.75
2023-05-08T11:20:13.537Z,3.85
2023-05-08T11:24:16.177Z,3.28
2023-05-08T11:28:17.979Z,2.40
2023-05-08T11:32:19.692Z,3.85
2023-05-08T11:36:22.964Z,3.15
2023-05-08T11:41:02.726Z,2.80
2023-05-08T11:45:09.321Z,2.58
2023-05-08T11:49:19.630Z,3.28
2023-05-08T11:53:24.604Z,4.37
2023-05-08T11:57:27.140Z,6.30
2023-05-08T12:01:30.540Z,2.28
2023-05-08T12:05:32.518Z,5.75
2023-05-08T12:09:34.201Z,2.58
2023-05-08T12:13:35.858Z,3.35
2023-05-08T12:17:38.051Z,2.97
2023-05-08T12:21:47.628Z,3.00
2023-05-08T12:25:55.803Z,3.15
2023-05-08T12:29:57.913Z,2.85
2023-05-08T12:33:59.731Z,2.53
2023-05-08T12:38:06.554Z,3.95
2023-05-08T12:46:12.740Z,4.10
2023-05-08T12:50:18.342Z,3.47
2023-05-08T12:54:20.097Z,3.12
2023-05-08T12:58:26.899Z,3.37
2023-05-08T13:02:28.834Z,3.87
2023-05-08T13:06:31.778Z,3.80
2023-05-08T13:11:04.213Z,4.65
2023-05-08T13:15:06.490Z,4.32
2023-05-08T13:19:08.125Z,5.62
2023-05-08T13:23:10.456Z,3.10
2023-05-08T13:27:13.419Z,2.97
2023-05-08T13:31:15.126Z,3.00
2023-05-08T13:35:18.007Z,2.85
2023-05-08T13:39:19.888Z,3.78
2023-05-08T13:43:21.542Z,2.05
2023-05-08T13:47:23.179Z,1.87
2023-05-08T13:51:24.926Z,2.35
2023-05-08T13:55:26.629Z,2.25
2023-05-08T13:59:28.456Z,3.20
2023-05-08T14:03:30.248Z,2.72
2023-05-08T14:07:32.020Z,3.42
2023-05-08T14:11:33.793Z,3.90
2023-05-08T14:15:37.807Z,5.30
2023-05-08T14:19:39.619Z,6.03
2023-05-08T14:23:41.326Z,2.20
2023-05-08T14:27:43.008Z,2.12
2023-05-08T14:31:45.307Z,3.20
2023-05-08T14:35:48.397Z,4.82
2023-05-08T14:39:53.888Z,3.83
2023-05-08T14:43:55.723Z,4.65
2023-05-08T14:47:57.585Z,2.80
2023-05-08T14:51:59.271Z,4.12
2023-05-08T14:56:01.441Z,3.58
2023-05-08T15:00:04.079Z,4.22
2023-05-08T15:04:05.815Z,5.93
2023-05-08T15:08:08.390Z,3.80
2023-05-08T15:12:10.102Z,4.25
2023-05-08T15:16:11.835Z,5.90
2023-05-08T15:20:13.473Z,4.75
2023-05-08T15:24:15.291Z,5.97
2023-05-08T15:28:16.980Z,5.32
2023-05-08T15:32:18.620Z,6.12
2023-05-08T15:36:20.319Z,6.68
2023-05-08T15:40:21.990Z,5.10
2023-05-08T15:44:24.819Z,5.60
2023-05-08T15:48:28.280Z,6.12
2023-05-08T15:52:29.999Z,5.47
2023-05-08T15:56:31.758Z,6.95
2023-05-08T16:00:44.010Z,5.60
2023-05-08T16:04:46.719Z,7.75
2023-05-08T16:08:48.391Z,7.35
2023-05-08T16:12:50.494Z,6.65
2023-05-08T16:16:52.207Z,11.15
2023-05-08T16:20:53.795Z,7.25
2023-05-08T16:24:55.592Z,7.72
2023-05-08T16:28:57.227Z,9.23
2023-05-08T16:32:58.952Z,8.70
2023-05-08T16:37:00.660Z,9.25
2023-05-08T16:41:07.255Z,8.77
2023-05-08T16:45:09.308Z,8.32
2023-05-08T16:49:11.044Z,10.27
2023-05-08T16:53:12.875Z,9.85
2023-05-08T16:57:14.537Z,13.77
2023-05-08T17:01:16.254Z,9.55
2023-05-08T17:05:18.801Z,9.43
2023-05-08T17:09:20.575Z,10.48
2023-05-08T17:13:22.306Z,10.35
2023-05-08T17:17:24.067Z,11.75
2023-05-08T17:21:25.748Z,9.07
2023-05-08T17:25:27.402Z,8.07
2023-05-08T17:29:29.270Z,9.90
2023-05-08T17:33:31.022Z,13.15
2023-05-08T17:37:32.691Z,8.80
2023-05-08T17:41:34.401Z,8.32
2023-05-08T17:45:36.074Z,8.02
2023-05-08T17:49:37.831Z,9.55
2023-05-08T17:53:40.199Z,8.80
2023-05-08T17:57:41.850Z,9.88
2023-05-08T18:01:43.684Z,10.45
2023-05-08T18:05:45.392Z,9.65
2023-05-08T18:09:47.096Z,8.93
2023-05-08T18:13:49.568Z,8.30
2023-05-08T18:17:53.429Z,8.80
2023-05-08T18:21:55.285Z,8.20
2023-05-08T18:25:57.028Z,8.25
2023-05-08T18:29:58.693Z,10.02
2023-05-08T18:34:00.544Z,8.27
2023-05-08T18:38:02.203Z,7.12
2023-05-08T18:42:04.337Z,7.47
2023-05-08T18:46:13.372Z,10.10
2023-05-08T18:50:15.781Z,6.95
2023-05-08T18:54:17.612Z,6.25
2023-05-08T18:58:19.335Z,7.55
2023-05-08T19:02:21.072Z,5.95
2023-05-08T19:06:22.788Z,5.85
2023-05-08T19:10:24.469Z,6.40
2023-05-08T19:14:26.110Z,6.85
2023-05-08T19:18:29.517Z,6.53
2023-05-08T19:22:32.900Z,8.05
2023-05-08T19:26:36.368Z,6.68
2023-05-08T19:30:38.082Z,7.32
2023-05-08T19:34:39.814Z,6.90
2023-05-08T19:38:41.624Z,7.65
2023-05-08T19:42:46.318Z,5.70
2023-05-08T19:46:50.144Z,6.70
2023-05-08T19:50:54.617Z,10.05
2023-05-08T19:54:57.486Z,7.97
2023-05-08T19:58:59.121Z,6.80
2023-05-08T20:03:00.977Z,8.25
2023-05-08T20:07:02.820Z,6.37
2023-05-08T20:11:07.001Z,8.05
2023-05-08T20:15:09.386Z,7.10
2023-05-08T20:19:11.055Z,7.20
2023-05-08T20:23:12.806Z,6.40
2023-05-08T20:27:14.535Z,7.00
2023-05-08T20:31:16.635Z,11.07
2023-05-08T20:35:18.500Z,9.25
2023-05-08T20:39:20.402Z,7.57
2023-05-08T20:43:22.126Z,7.85
2023-05-08T20:47:23.938Z,7.75
2023-05-08T20:51:26.077Z,6.75
2023-05-08T20:57:19.687Z,8.43
2023-05-08T21:01:21.449Z,7.25
2023-05-08T21:05:23.173Z,6.80
2023-05-08T21:09:24.947Z,8.23
2023-05-08T21:13:26.819Z,7.90
2023-05-08T21:17:28.631Z,7.25
2023-05-08T21:21:30.310Z,9.13
2023-05-08T21:25:32.039Z,8.18
2023-05-08T21:29:33.930Z,9.20
2023-05-08T21:33:35.642Z,9.98
2023-05-08T21:37:38.440Z,10.10
2023-05-08T21:41:43.165Z,9.30
2023-05-08T21:45:44.771Z,13.35
2023-05-08T21:49:46.413Z,12.30
2023-05-08T21:53:48.071Z,9.93
2023-05-08T21:57:49.764Z,9.05
2023-05-08T22:01:51.504Z,9.18
2023-05-08T22:05:55.267Z,9.48
2023-05-08T22:09:56.995Z,9.95
2023-05-08T22:13:58.643Z,10.57
2023-05-08T22:18:02.275Z,9.40
2023-05-08T22:22:03.979Z,12.02
2023-05-08T22:26:05.677Z,10.15
2023-05-08T22:30:07.717Z,10.02
2023-05-08T22:34:09.353Z,11.40
2023-05-08T22:38:10.965Z,10.82
2023-05-08T22:42:12.843Z,11.52
2023-05-08T22:46:14.701Z,11.32
2023-05-08T22:50:16.936Z,10.98
2023-05-08T22:54:18.646Z,10.90
2023-05-08T22:58:20.352Z,11.57
2023-05-08T23:02:22.221Z,10.80
2023-05-08T23:06:24.091Z,14.87
2023-05-08T23:10:25.719Z,11.07
2023-05-08T23:14:27.601Z,10.80
2023-05-08T23:18:29.281Z,10.38
2023-05-08T23:22:31.112Z,13.02
2023-05-08T23:26:32.913Z,11.73
2023-05-08T23:30:34.589Z,15.43
2023-05-08T23:34:36.221Z,13.77
2023-05-08T23:38:37.896Z,12.52
2023-05-08T23:42:39.745Z,12.50
2023-05-08T23:46:41.698Z,12.48
2023-05-08T23:50:43.522Z,12.30
2023-05-08T23:54:45.478Z,12.73
2023-05-08T23:58:47.178Z,12.52
